This demonstration page uses our WeatherBlox Daily Observations layout. Learn more.

Left ArrowRight Arrow

36.17497, -115.13722

Hourly Observations for September 20, 2016

Temp ( °F °C ) Dew Point ( °F °C ) Humidity (%) Winds ( mph kmh ) Pressure ( in mb ) Visibility ( mi km ) Precip ( " mm )
12:53 am 00:53 Clear 86 30 43 6.1 22 22 SW 15 24 29.97 1015 10 16.0934 0 0
1:53 am 01:53 Clear 85 29.4 43 6.1 23 23 SSW 12 19 29.99 1016 10 16.0934 0 0
2:53 am 02:53 Clear 84 28.9 43 6.1 24 24 SSW 8 13 29.99 1016 10 16.0934 0 0
3:53 am 03:53 Clear 81 27.2 44 6.7 27 27 SSE 9 15 29.99 1016 10 16.0934 0 0
4:53 am 04:53 Clear 79 26.1 44 6.7 29 29 ESE 5 7 30 1016 10 16.0934 0 0
5:53 am 05:53 Clear 78 25.6 46 7.8 32 32 E 6 9 30 1016 10 16.0934 0 0
6:53 am 06:53 Sunny 76 24.4 46 7.8 35 35 E 6 9 30.01 1016 10 16.0934 0 0
7:53 am 07:53 Sunny 77 25 48 8.9 36 36 NNW 3 6 30.03 1017 10 16.0934 0 0
8:53 am 08:53 Sunny 80 26.7 45 7.2 29 29 E 3 6 30.04 1017 10 16.0934 0 0
9:53 am 09:53 Sunny 81 27.2 48 8.9 32 32 S 7 11 30.04 1017 10 16.0934 0 0
10:53 am 10:53 Sunny 83 28.3 49 9.4 31 31 SSW 10 17 30.03 1017 10 16.0934 0 0
11:53 am 11:53 Sunny 84 28.9 50 10 31 31 S 13 20 30.02 1017 10 16.0934 0 0
12:53 pm 12:53 Mostly Cloudy 82 27.8 50 10 33 33 SSE 18 30 30.02 1017 10 16.0934 0 0
1:53 pm 13:53 Mostly Cloudy 82 27.8 52 11.1 35 35 S 15 24 30 1016 10 16.0934 0 0
2:53 pm 14:53 Partly Cloudy 81 27.2 56 13.3 42 42 SSE 13 20 30 1016 10 16.0934 0 0
3:53 pm 15:53 Cloudy 78 25.6 58 14.4 50 50 SSE 14 22 30.01 1016 10 16.0934 0 0
4:53 pm 16:53 Cloudy 75 23.9 61 16.1 62 62 ESE 9 15 30.01 1016 10 16.0934 0 0
5:53 pm 17:53 Mostly Sunny 76 24.4 58 14.4 54 54 SSE 9 15 30.01 1016 10 16.0934 0 0
6:53 pm 18:53 Partly Cloudy 75 23.9 58 14.4 55 55 SE 6 9 30.01 1016 10 16.0934 0 0
7:53 pm 19:53 Clear 74 23.3 59 15 60 60 SE 6 9 30.01 1016 10 16.0934 0 0
8:53 pm 20:53 Clear 74 23.3 58 14.4 57 57 ESE 3 6 30.01 1016 10 16.0934 0 0
9:53 pm 21:53 Cloudy 74 23.3 59 15 60 60 SE 6 9 30 1016 10 16.0934 0 0
10:53 pm 22:53 Partly Cloudy 72 22.2 60 15.6 66 66 SE 5 7 30 1016 10 16.0934 0 0
11:53 pm 23:53 Partly Cloudy 72 22.2 60 15.6 66 66 ESE 5 7 30 1016 10 16.0934 0 0

Powered by AerisWeather